Crawfordsville, Oregon
Current Conditions -  °F | °C
As of 4:55 AM on Sunday 21 Dec 2014 (Local Time) from KCVO Reporting Station
Overcast Overcast  
Wind Chill: 55°   Ceiling: 3800
Heat Index: 55°   Visibility: 10mi
Dew Point: 50°   Wind: 10mph
Humidity: 82%   Direction: 280°W
Pressure: 29.97"   Gusts: NA
Location:  44.36°N, 122.86°W
Report Text: KCVO 211255Z AUTO 28009KT 10SM SCT030 BKN038 OVC070 13/10 A2997 RMK AO1
Loading
Personal Weather Stations






























Interactive Weather Map New forecast layout! Learn more

10-Day Weather Forecast

Advertisements
Track Severe Weather on mobile